sensor_id;sensor_type;location;lat;lon;timestamp;P1;durP1;ratioP1;P2;durP2;ratioP2
11394;SDS011;5753;54.402;10.220;2023-03-21T00:01:40;19.30;;;14.93;;
11394;SDS011;5753;54.402;10.220;2023-03-21T00:04:06;24.83;;;15.65;;
11394;SDS011;5753;54.402;10.220;2023-03-21T00:06:33;21.75;;;14.00;;
11394;SDS011;5753;54.402;10.220;2023-03-21T00:09:00;23.42;;;15.38;;
11394;SDS011;5753;54.402;10.220;2023-03-21T00:11:26;19.20;;;13.68;;
11394;SDS011;5753;54.402;10.220;2023-03-21T00:13:53;20.80;;;13.43;;
11394;SDS011;5753;54.402;10.220;2023-03-21T00:16:22;18.38;;;12.07;;
11394;SDS011;5753;54.402;10.220;2023-03-21T00:18:52;23.88;;;16.00;;
11394;SDS011;5753;54.402;10.220;2023-03-21T00:21:19;20.30;;;12.50;;
11394;SDS011;5753;54.402;10.220;2023-03-21T00:23:52;19.65;;;13.48;;
11394;SDS011;5753;54.402;10.220;2023-03-21T00:26:19;18.35;;;12.32;;
11394;SDS011;5753;54.402;10.220;2023-03-21T00:28:46;21.67;;;14.35;;
11394;SDS011;5753;54.402;10.220;2023-03-21T00:31:13;23.20;;;14.23;;
11394;SDS011;5753;54.402;10.220;2023-03-21T00:33:40;23.77;;;15.05;;
11394;SDS011;5753;54.402;10.220;2023-03-21T00:36:06;18.25;;;9.95;;
11394;SDS011;5753;54.402;10.220;2023-03-21T00:38:35;20.10;;;15.35;;
11394;SDS011;5753;54.402;10.220;2023-03-21T00:41:05;22.67;;;14.48;;
11394;SDS011;5753;54.402;10.220;2023-03-21T00:43:33;17.67;;;12.50;;
11394;SDS011;5753;54.402;10.220;2023-03-21T00:46:00;18.92;;;13.27;;
11394;SDS011;5753;54.402;10.220;2023-03-21T00:48:27;18.58;;;11.88;;
11394;SDS011;5753;54.402;10.220;2023-03-21T00:50:54;19.52;;;11.85;;
11394;SDS011;5753;54.402;10.220;2023-03-21T00:53:21;25.25;;;12.77;;
11394;SDS011;5753;54.402;10.220;2023-03-21T00:55:48;17.65;;;12.18;;
11394;SDS011;5753;54.402;10.220;2023-03-21T00:58:14;20.65;;;12.73;;
11394;SDS011;5753;54.402;10.220;2023-03-21T01:00:41;20.25;;;14.95;;
11394;SDS011;5753;54.402;10.220;2023-03-21T01:03:10;19.52;;;13.02;;
11394;SDS011;5753;54.402;10.220;2023-03-21T01:05:38;22.75;;;13.95;;
11394;SDS011;5753;54.402;10.220;2023-03-21T01:08:24;22.80;;;15.07;;
11394;SDS011;5753;54.402;10.220;2023-03-21T01:10:52;17.20;;;11.93;;
11394;SDS011;5753;54.402;10.220;2023-03-21T01:13:20;21.30;;;13.50;;
11394;SDS011;5753;54.402;10.220;2023-03-21T01:15:52;23.13;;;14.73;;
11394;SDS011;5753;54.402;10.220;2023-03-21T01:18:23;22.95;;;13.55;;
11394;SDS011;5753;54.402;10.220;2023-03-21T01:20:53;21.05;;;11.25;;
11394;SDS011;5753;54.402;10.220;2023-03-21T01:23:21;18.52;;;11.50;;
11394;SDS011;5753;54.402;10.220;2023-03-21T01:25:48;21.38;;;14.18;;
11394;SDS011;5753;54.402;10.220;2023-03-21T01:28:16;20.85;;;13.57;;
11394;SDS011;5753;54.402;10.220;2023-03-21T01:30:43;21.25;;;13.45;;
11394;SDS011;5753;54.402;10.220;2023-03-21T01:33:11;24.90;;;15.40;;
11394;SDS011;5753;54.402;10.220;2023-03-21T01:35:38;25.35;;;12.90;;
11394;SDS011;5753;54.402;10.220;2023-03-21T01:38:04;19.08;;;12.98;;
11394;SDS011;5753;54.402;10.220;2023-03-21T01:40:30;21.25;;;14.45;;
11394;SDS011;5753;54.402;10.220;2023-03-21T01:42:56;20.67;;;13.90;;
11394;SDS011;5753;54.402;10.220;2023-03-21T01:48:26;24.30;;;14.60;;
11394;SDS011;5753;54.402;10.220;2023-03-21T01:50:54;22.90;;;15.23;;
11394;SDS011;5753;54.402;10.220;2023-03-21T01:53:21;20.00;;;11.52;;
11394;SDS011;5753;54.402;10.220;2023-03-21T01:55:54;26.20;;;16.63;;
11394;SDS011;5753;54.402;10.220;2023-03-21T01:58:22;26.15;;;15.18;;
11394;SDS011;5753;54.402;10.220;2023-03-21T02:00:49;22.90;;;12.48;;
11394;SDS011;5753;54.402;10.220;2023-03-21T02:03:17;21.35;;;15.48;;
11394;SDS011;5753;54.402;10.220;2023-03-21T02:06:00;22.58;;;12.07;;
11394;SDS011;5753;54.402;10.220;2023-03-21T02:08:35;22.98;;;13.40;;
11394;SDS011;5753;54.402;10.220;2023-03-21T02:11:01;22.80;;;15.50;;
11394;SDS011;5753;54.402;10.220;2023-03-21T02:13:28;19.98;;;13.30;;
11394;SDS011;5753;54.402;10.220;2023-03-21T02:15:59;23.17;;;15.38;;
11394;SDS011;5753;54.402;10.220;2023-03-21T02:18:37;25.83;;;14.68;;
11394;SDS011;5753;54.402;10.220;2023-03-21T02:26:53;22.45;;;14.55;;
11394;SDS011;5753;54.402;10.220;2023-03-21T02:29:32;25.33;;;14.25;;
11394;SDS011;5753;54.402;10.220;2023-03-21T02:38:13;22.90;;;13.45;;
11394;SDS011;5753;54.402;10.220;2023-03-21T02:40:49;24.58;;;13.70;;
11394;SDS011;5753;54.402;10.220;2023-03-21T02:48:53;27.45;;;15.15;;
11394;SDS011;5753;54.402;10.220;2023-03-21T02:51:25;24.58;;;18.35;;
11394;SDS011;5753;54.402;10.220;2023-03-21T02:53:59;25.92;;;16.38;;
11394;SDS011;5753;54.402;10.220;2023-03-21T02:56:33;28.10;;;20.20;;
11394;SDS011;5753;54.402;10.220;2023-03-21T02:59:01;24.40;;;17.25;;
11394;SDS011;5753;54.402;10.220;2023-03-21T03:01:29;26.25;;;18.13;;
11394;SDS011;5753;54.402;10.220;2023-03-21T03:03:56;32.13;;;15.40;;
11394;SDS011;5753;54.402;10.220;2023-03-21T03:06:23;40.92;;;15.63;;
11394;SDS011;5753;54.402;10.220;2023-03-21T03:11:59;25.90;;;16.73;;
11394;SDS011;5753;54.402;10.220;2023-03-21T03:17:53;25.63;;;14.50;;
11394;SDS011;5753;54.402;10.220;2023-03-21T03:25:51;32.50;;;16.45;;
11394;SDS011;5753;54.402;10.220;2023-03-21T03:28:24;23.60;;;14.82;;
11394;SDS011;5753;54.402;10.220;2023-03-21T03:30:56;27.23;;;16.52;;
11394;SDS011;5753;54.402;10.220;2023-03-21T03:33:24;24.30;;;15.90;;
11394;SDS011;5753;54.402;10.220;2023-03-21T03:35:51;26.20;;;14.25;;
11394;SDS011;5753;54.402;10.220;2023-03-21T03:38:20;21.08;;;14.30;;
11394;SDS011;5753;54.402;10.220;2023-03-21T03:40:50;30.02;;;20.52;;
11394;SDS011;5753;54.402;10.220;2023-03-21T03:43:33;23.23;;;14.65;;
11394;SDS011;5753;54.402;10.220;2023-03-21T03:46:09;24.98;;;16.40;;
11394;SDS011;5753;54.402;10.220;2023-03-21T03:48:42;28.77;;;16.35;;
11394;SDS011;5753;54.402;10.220;2023-03-21T03:51:23;30.90;;;18.75;;
11394;SDS011;5753;54.402;10.220;2023-03-21T03:56:25;29.58;;;16.55;;
11394;SDS011;5753;54.402;10.220;2023-03-21T03:58:52;22.23;;;16.88;;
11394;SDS011;5753;54.402;10.220;2023-03-21T04:01:20;26.13;;;15.70;;
11394;SDS011;5753;54.402;10.220;2023-03-21T04:03:47;24.27;;;15.00;;
11394;SDS011;5753;54.402;10.220;2023-03-21T04:06:14;27.60;;;16.63;;
11394;SDS011;5753;54.402;10.220;2023-03-21T04:08:41;22.90;;;16.38;;
11394;SDS011;5753;54.402;10.220;2023-03-21T04:11:08;27.92;;;17.48;;
11394;SDS011;5753;54.402;10.220;2023-03-21T04:13:37;29.90;;;16.88;;
11394;SDS011;5753;54.402;10.220;2023-03-21T04:16:03;24.45;;;15.18;;
11394;SDS011;5753;54.402;10.220;2023-03-21T04:18:29;25.98;;;13.70;;
11394;SDS011;5753;54.402;10.220;2023-03-21T04:20:56;23.52;;;14.80;;
11394;SDS011;5753;54.402;10.220;2023-03-21T04:23:22;23.17;;;13.80;;
11394;SDS011;5753;54.402;10.220;2023-03-21T04:25:48;25.60;;;14.38;;
11394;SDS011;5753;54.402;10.220;2023-03-21T04:28:17;26.10;;;15.10;;
11394;SDS011;5753;54.402;10.220;2023-03-21T04:30:47;22.83;;;14.55;;
11394;SDS011;5753;54.402;10.220;2023-03-21T04:33:14;23.45;;;14.15;;
11394;SDS011;5753;54.402;10.220;2023-03-21T04:35:40;26.67;;;17.73;;
11394;SDS011;5753;54.402;10.220;2023-03-21T04:38:09;25.02;;;15.15;;
11394;SDS011;5753;54.402;10.220;2023-03-21T04:40:35;23.85;;;16.73;;
11394;SDS011;5753;54.402;10.220;2023-03-21T04:43:01;21.88;;;14.18;;
11394;SDS011;5753;54.402;10.220;2023-03-21T04:45:28;26.00;;;15.85;;
11394;SDS011;5753;54.402;10.220;2023-03-21T04:47:54;31.77;;;18.58;;
11394;SDS011;5753;54.402;10.220;2023-03-21T04:50:22;33.88;;;18.15;;
11394;SDS011;5753;54.402;10.220;2023-03-21T04:52:48;19.83;;;16.33;;
11394;SDS011;5753;54.402;10.220;2023-03-21T04:55:14;25.85;;;14.25;;
11394;SDS011;5753;54.402;10.220;2023-03-21T04:57:40;24.45;;;16.40;;
11394;SDS011;5753;54.402;10.220;2023-03-21T05:00:08;25.55;;;15.40;;
11394;SDS011;5753;54.402;10.220;2023-03-21T05:02:35;27.90;;;17.67;;
11394;SDS011;5753;54.402;10.220;2023-03-21T05:05:01;21.77;;;16.17;;
11394;SDS011;5753;54.402;10.220;2023-03-21T05:07:28;32.30;;;19.10;;
11394;SDS011;5753;54.402;10.220;2023-03-21T05:09:55;25.08;;;14.45;;
11394;SDS011;5753;54.402;10.220;2023-03-21T05:12:21;24.35;;;19.00;;
11394;SDS011;5753;54.402;10.220;2023-03-21T05:14:47;28.00;;;18.20;;
11394;SDS011;5753;54.402;10.220;2023-03-21T05:17:13;24.35;;;16.00;;
11394;SDS011;5753;54.402;10.220;2023-03-21T05:19:49;26.83;;;16.95;;
11394;SDS011;5753;54.402;10.220;2023-03-21T05:22:17;30.65;;;19.45;;
11394;SDS011;5753;54.402;10.220;2023-03-21T05:24:44;27.58;;;16.63;;
11394;SDS011;5753;54.402;10.220;2023-03-21T05:27:17;31.70;;;16.95;;
11394;SDS011;5753;54.402;10.220;2023-03-21T05:30:14;34.72;;;17.30;;
11394;SDS011;5753;54.402;10.220;2023-03-21T05:32:41;26.80;;;18.52;;
11394;SDS011;5753;54.402;10.220;2023-03-21T05:35:08;26.02;;;16.95;;
11394;SDS011;5753;54.402;10.220;2023-03-21T05:37:34;29.75;;;17.15;;
11394;SDS011;5753;54.402;10.220;2023-03-21T05:40:02;25.00;;;15.25;;
11394;SDS011;5753;54.402;10.220;2023-03-21T05:42:30;28.45;;;18.83;;
11394;SDS011;5753;54.402;10.220;2023-03-21T05:44:57;31.38;;;16.60;;
11394;SDS011;5753;54.402;10.220;2023-03-21T05:47:23;31.08;;;17.15;;
11394;SDS011;5753;54.402;10.220;2023-03-21T05:49:49;38.22;;;20.67;;
11394;SDS011;5753;54.402;10.220;2023-03-21T05:52:16;31.30;;;17.73;;
11394;SDS011;5753;54.402;10.220;2023-03-21T05:54:42;27.60;;;17.45;;
11394;SDS011;5753;54.402;10.220;2023-03-21T05:57:09;28.98;;;19.45;;
11394;SDS011;5753;54.402;10.220;2023-03-21T05:59:35;24.67;;;16.58;;
11394;SDS011;5753;54.402;10.220;2023-03-21T06:02:02;31.10;;;14.95;;
11394;SDS011;5753;54.402;10.220;2023-03-21T06:04:28;24.95;;;16.73;;
11394;SDS011;5753;54.402;10.220;2023-03-21T06:06:55;23.63;;;14.98;;
11394;SDS011;5753;54.402;10.220;2023-03-21T06:09:21;31.10;;;20.85;;
11394;SDS011;5753;54.402;10.220;2023-03-21T06:11:49;25.35;;;17.88;;
11394;SDS011;5753;54.402;10.220;2023-03-21T06:14:17;27.45;;;13.32;;
11394;SDS011;5753;54.402;10.220;2023-03-21T06:16:44;25.13;;;15.10;;
11394;SDS011;5753;54.402;10.220;2023-03-21T06:19:10;24.02;;;17.55;;
11394;SDS011;5753;54.402;10.220;2023-03-21T06:21:37;24.50;;;15.13;;
11394;SDS011;5753;54.402;10.220;2023-03-21T06:24:03;28.67;;;15.73;;
11394;SDS011;5753;54.402;10.220;2023-03-21T06:26:30;24.98;;;13.15;;
11394;SDS011;5753;54.402;10.220;2023-03-21T06:28:56;29.65;;;15.95;;
11394;SDS011;5753;54.402;10.220;2023-03-21T06:31:22;26.55;;;15.80;;
11394;SDS011;5753;54.402;10.220;2023-03-21T06:33:50;20.90;;;12.85;;
11394;SDS011;5753;54.402;10.220;2023-03-21T06:36:16;24.67;;;15.10;;
11394;SDS011;5753;54.402;10.220;2023-03-21T06:38:44;23.48;;;16.98;;
11394;SDS011;5753;54.402;10.220;2023-03-21T06:41:11;23.13;;;14.18;;
11394;SDS011;5753;54.402;10.220;2023-03-21T06:43:37;24.42;;;14.30;;
11394;SDS011;5753;54.402;10.220;2023-03-21T06:46:04;24.27;;;13.38;;
11394;SDS011;5753;54.402;10.220;2023-03-21T06:48:30;25.20;;;15.73;;
11394;SDS011;5753;54.402;10.220;2023-03-21T06:50:57;23.55;;;13.88;;
11394;SDS011;5753;54.402;10.220;2023-03-21T06:53:23;26.13;;;15.15;;
11394;SDS011;5753;54.402;10.220;2023-03-21T06:55:53;21.83;;;14.15;;
11394;SDS011;5753;54.402;10.220;2023-03-21T06:58:20;22.75;;;16.10;;
11394;SDS011;5753;54.402;10.220;2023-03-21T07:00:47;17.70;;;11.88;;
11394;SDS011;5753;54.402;10.220;2023-03-21T07:03:13;21.30;;;14.45;;
11394;SDS011;5753;54.402;10.220;2023-03-21T07:05:40;20.35;;;16.00;;
11394;SDS011;5753;54.402;10.220;2023-03-21T07:08:06;17.98;;;11.65;;
11394;SDS011;5753;54.402;10.220;2023-03-21T07:10:40;16.33;;;12.73;;
11394;SDS011;5753;54.402;10.220;2023-03-21T07:13:07;21.73;;;13.95;;
11394;SDS011;5753;54.402;10.220;2023-03-21T07:15:34;21.67;;;14.93;;
11394;SDS011;5753;54.402;10.220;2023-03-21T07:18:05;20.95;;;14.45;;
11394;SDS011;5753;54.402;10.220;2023-03-21T07:20:33;16.80;;;10.68;;
11394;SDS011;5753;54.402;10.220;2023-03-21T07:23:02;16.98;;;12.38;;
11394;SDS011;5753;54.402;10.220;2023-03-21T07:25:28;23.23;;;15.23;;
11394;SDS011;5753;54.402;10.220;2023-03-21T07:27:54;21.70;;;14.18;;
11394;SDS011;5753;54.402;10.220;2023-03-21T07:30:21;23.63;;;15.10;;
11394;SDS011;5753;54.402;10.220;2023-03-21T07:32:47;20.80;;;14.02;;
11394;SDS011;5753;54.402;10.220;2023-03-21T07:35:15;19.85;;;14.38;;
11394;SDS011;5753;54.402;10.220;2023-03-21T07:37:41;19.75;;;13.20;;
11394;SDS011;5753;54.402;10.220;2023-03-21T07:40:08;21.27;;;16.35;;
11394;SDS011;5753;54.402;10.220;2023-03-21T07:42:36;22.15;;;15.40;;
11394;SDS011;5753;54.402;10.220;2023-03-21T07:45:04;25.13;;;17.77;;
11394;SDS011;5753;54.402;10.220;2023-03-21T07:47:32;21.88;;;14.77;;
11394;SDS011;5753;54.402;10.220;2023-03-21T07:49:58;23.08;;;14.60;;
11394;SDS011;5753;54.402;10.220;2023-03-21T07:52:25;20.38;;;14.65;;
11394;SDS011;5753;54.402;10.220;2023-03-21T07:54:51;23.95;;;14.77;;
11394;SDS011;5753;54.402;10.220;2023-03-21T07:57:17;21.10;;;13.82;;
11394;SDS011;5753;54.402;10.220;2023-03-21T07:59:43;20.42;;;14.68;;
11394;SDS011;5753;54.402;10.220;2023-03-21T08:02:16;24.40;;;15.82;;
11394;SDS011;5753;54.402;10.220;2023-03-21T08:04:42;19.48;;;15.48;;
11394;SDS011;5753;54.402;10.220;2023-03-21T08:07:09;20.48;;;15.18;;
11394;SDS011;5753;54.402;10.220;2023-03-21T08:09:35;19.98;;;14.68;;
11394;SDS011;5753;54.402;10.220;2023-03-21T08:12:02;18.15;;;13.13;;
11394;SDS011;5753;54.402;10.220;2023-03-21T08:14:29;22.65;;;16.08;;
11394;SDS011;5753;54.402;10.220;2023-03-21T08:16:56;19.52;;;14.88;;
11394;SDS011;5753;54.402;10.220;2023-03-21T08:19:22;18.65;;;13.10;;
11394;SDS011;5753;54.402;10.220;2023-03-21T08:21:48;21.55;;;14.63;;
11394;SDS011;5753;54.402;10.220;2023-03-21T08:24:16;20.75;;;14.63;;
11394;SDS011;5753;54.402;10.220;2023-03-21T08:26:42;22.95;;;15.25;;
11394;SDS011;5753;54.402;10.220;2023-03-21T08:29:10;22.40;;;15.60;;
11394;SDS011;5753;54.402;10.220;2023-03-21T08:31:38;19.40;;;13.05;;
11394;SDS011;5753;54.402;10.220;2023-03-21T08:34:05;19.13;;;13.68;;
11394;SDS011;5753;54.402;10.220;2023-03-21T08:36:32;17.48;;;11.68;;
11394;SDS011;5753;54.402;10.220;2023-03-21T08:39:02;19.35;;;13.63;;
11394;SDS011;5753;54.402;10.220;2023-03-21T08:41:33;19.38;;;13.90;;
11394;SDS011;5753;54.402;10.220;2023-03-21T08:44:01;20.23;;;14.05;;
11394;SDS011;5753;54.402;10.220;2023-03-21T08:46:30;22.17;;;14.98;;
11394;SDS011;5753;54.402;10.220;2023-03-21T08:48:56;23.60;;;14.60;;
11394;SDS011;5753;54.402;10.220;2023-03-21T08:51:22;20.98;;;13.55;;
11394;SDS011;5753;54.402;10.220;2023-03-21T08:53:48;21.50;;;12.70;;
11394;SDS011;5753;54.402;10.220;2023-03-21T08:56:15;21.90;;;15.90;;
11394;SDS011;5753;54.402;10.220;2023-03-21T08:58:42;25.42;;;17.02;;
11394;SDS011;5753;54.402;10.220;2023-03-21T09:01:08;19.73;;;14.18;;
11394;SDS011;5753;54.402;10.220;2023-03-21T09:03:39;22.48;;;14.65;;
11394;SDS011;5753;54.402;10.220;2023-03-21T09:06:06;22.50;;;15.85;;
11394;SDS011;5753;54.402;10.220;2023-03-21T09:08:35;24.08;;;13.75;;
11394;SDS011;5753;54.402;10.220;2023-03-21T09:11:02;23.90;;;15.63;;
11394;SDS011;5753;54.402;10.220;2023-03-21T09:13:28;27.65;;;18.40;;
11394;SDS011;5753;54.402;10.220;2023-03-21T09:15:54;23.83;;;16.90;;
11394;SDS011;5753;54.402;10.220;2023-03-21T09:18:25;26.55;;;18.42;;
11394;SDS011;5753;54.402;10.220;2023-03-21T09:21:08;20.88;;;15.75;;
11394;SDS011;5753;54.402;10.220;2023-03-21T09:23:38;19.42;;;15.27;;
11394;SDS011;5753;54.402;10.220;2023-03-21T09:26:06;21.92;;;15.60;;
11394;SDS011;5753;54.402;10.220;2023-03-21T09:28:33;22.63;;;16.35;;
11394;SDS011;5753;54.402;10.220;2023-03-21T09:31:02;21.88;;;14.75;;
11394;SDS011;5753;54.402;10.220;2023-03-21T09:33:28;22.77;;;12.77;;
11394;SDS011;5753;54.402;10.220;2023-03-21T09:35:55;19.75;;;14.95;;
11394;SDS011;5753;54.402;10.220;2023-03-21T09:38:24;18.65;;;13.15;;
11394;SDS011;5753;54.402;10.220;2023-03-21T09:40:56;21.77;;;14.48;;
11394;SDS011;5753;54.402;10.220;2023-03-21T09:49:46;17.42;;;14.15;;
11394;SDS011;5753;54.402;10.220;2023-03-21T09:52:28;20.20;;;14.07;;
11394;SDS011;5753;54.402;10.220;2023-03-21T09:54:58;19.05;;;13.40;;
11394;SDS011;5753;54.402;10.220;2023-03-21T09:58:00;18.95;;;13.55;;
11394;SDS011;5753;54.402;10.220;2023-03-21T10:00:41;21.02;;;11.32;;
11394;SDS011;5753;54.402;10.220;2023-03-21T10:03:21;21.17;;;15.02;;
11394;SDS011;5753;54.402;10.220;2023-03-21T10:05:53;23.52;;;15.13;;
11394;SDS011;5753;54.402;10.220;2023-03-21T10:08:29;19.90;;;13.32;;
11394;SDS011;5753;54.402;10.220;2023-03-21T10:14:13;20.52;;;14.02;;
11394;SDS011;5753;54.402;10.220;2023-03-21T10:17:03;26.15;;;14.57;;
11394;SDS011;5753;54.402;10.220;2023-03-21T10:19:34;21.00;;;13.90;;
11394;SDS011;5753;54.402;10.220;2023-03-21T10:22:00;20.42;;;15.40;;
11394;SDS011;5753;54.402;10.220;2023-03-21T10:24:27;20.02;;;16.20;;
11394;SDS011;5753;54.402;10.220;2023-03-21T10:26:56;19.35;;;14.60;;
11394;SDS011;5753;54.402;10.220;2023-03-21T10:29:24;23.52;;;15.68;;
11394;SDS011;5753;54.402;10.220;2023-03-21T10:31:53;20.85;;;15.30;;
11394;SDS011;5753;54.402;10.220;2023-03-21T10:36:56;23.20;;;15.52;;
11394;SDS011;5753;54.402;10.220;2023-03-21T10:39:28;21.30;;;14.30;;
11394;SDS011;5753;54.402;10.220;2023-03-21T10:42:00;21.08;;;14.45;;
11394;SDS011;5753;54.402;10.220;2023-03-21T10:44:31;24.45;;;14.57;;
11394;SDS011;5753;54.402;10.220;2023-03-21T10:47:06;23.88;;;14.50;;
11394;SDS011;5753;54.402;10.220;2023-03-21T10:49:35;18.40;;;14.45;;
11394;SDS011;5753;54.402;10.220;2023-03-21T10:52:03;22.77;;;14.95;;
11394;SDS011;5753;54.402;10.220;2023-03-21T10:54:32;22.83;;;16.70;;
11394;SDS011;5753;54.402;10.220;2023-03-21T10:57:03;19.42;;;14.90;;
11394;SDS011;5753;54.402;10.220;2023-03-21T10:59:43;17.75;;;13.63;;
11394;SDS011;5753;54.402;10.220;2023-03-21T11:02:38;19.30;;;15.55;;
11394;SDS011;5753;54.402;10.220;2023-03-21T11:05:05;17.35;;;11.90;;
11394;SDS011;5753;54.402;10.220;2023-03-21T11:07:41;17.80;;;12.52;;
11394;SDS011;5753;54.402;10.220;2023-03-21T11:10:11;17.40;;;12.23;;
11394;SDS011;5753;54.402;10.220;2023-03-21T11:12:53;16.90;;;13.23;;
11394;SDS011;5753;54.402;10.220;2023-03-21T11:15:29;16.10;;;13.55;;
11394;SDS011;5753;54.402;10.220;2023-03-21T11:17:57;18.50;;;12.65;;
11394;SDS011;5753;54.402;10.220;2023-03-21T11:20:25;15.30;;;11.35;;
11394;SDS011;5753;54.402;10.220;2023-03-21T11:22:55;15.73;;;13.40;;
11394;SDS011;5753;54.402;10.220;2023-03-21T11:28:00;14.02;;;9.93;;
11394;SDS011;5753;54.402;10.220;2023-03-21T11:30:32;20.63;;;13.77;;
11394;SDS011;5753;54.402;10.220;2023-03-21T11:33:02;15.80;;;10.65;;
11394;SDS011;5753;54.402;10.220;2023-03-21T11:35:32;13.65;;;11.32;;
11394;SDS011;5753;54.402;10.220;2023-03-21T11:38:00;15.70;;;12.25;;
11394;SDS011;5753;54.402;10.220;2023-03-21T11:40:34;16.60;;;11.68;;
11394;SDS011;5753;54.402;10.220;2023-03-21T11:43:05;17.85;;;12.63;;
11394;SDS011;5753;54.402;10.220;2023-03-21T11:48:29;23.80;;;16.45;;
11394;SDS011;5753;54.402;10.220;2023-03-21T11:51:11;15.45;;;12.25;;
11394;SDS011;5753;54.402;10.220;2023-03-21T11:53:50;18.38;;;13.55;;
11394;SDS011;5753;54.402;10.220;2023-03-21T11:56:37;16.05;;;13.75;;
11394;SDS011;5753;54.402;10.220;2023-03-21T11:59:15;17.42;;;13.13;;
11394;SDS011;5753;54.402;10.220;2023-03-21T12:09:41;16.58;;;11.68;;
11394;SDS011;5753;54.402;10.220;2023-03-21T12:14:54;15.70;;;11.57;;
11394;SDS011;5753;54.402;10.220;2023-03-21T12:22:55;18.40;;;13.30;;
11394;SDS011;5753;54.402;10.220;2023-03-21T12:25:32;18.48;;;13.57;;
11394;SDS011;5753;54.402;10.220;2023-03-21T12:34:39;20.67;;;13.27;;
11394;SDS011;5753;54.402;10.220;2023-03-21T12:37:08;14.85;;;12.20;;
11394;SDS011;5753;54.402;10.220;2023-03-21T12:39:40;19.58;;;11.95;;
11394;SDS011;5753;54.402;10.220;2023-03-21T12:45:08;15.20;;;12.23;;
11394;SDS011;5753;54.402;10.220;2023-03-21T12:47:47;16.33;;;9.95;;
11394;SDS011;5753;54.402;10.220;2023-03-21T12:50:24;19.13;;;13.80;;
11394;SDS011;5753;54.402;10.220;2023-03-21T12:53:04;15.27;;;10.70;;
11394;SDS011;5753;54.402;10.220;2023-03-21T12:56:00;16.38;;;11.20;;
11394;SDS011;5753;54.402;10.220;2023-03-21T12:58:34;19.25;;;12.40;;
11394;SDS011;5753;54.402;10.220;2023-03-21T13:01:10;15.10;;;10.98;;
11394;SDS011;5753;54.402;10.220;2023-03-21T13:06:28;15.10;;;8.38;;
11394;SDS011;5753;54.402;10.220;2023-03-21T13:08:57;10.85;;;9.23;;
11394;SDS011;5753;54.402;10.220;2023-03-21T13:11:28;12.57;;;7.93;;
11394;SDS011;5753;54.402;10.220;2023-03-21T13:13:57;11.25;;;8.82;;
11394;SDS011;5753;54.402;10.220;2023-03-21T13:17:01;12.63;;;7.93;;
11394;SDS011;5753;54.402;10.220;2023-03-21T13:24:56;9.95;;;8.50;;
11394;SDS011;5753;54.402;10.220;2023-03-21T13:29:59;9.77;;;7.45;;
11394;SDS011;5753;54.402;10.220;2023-03-21T13:32:42;10.52;;;7.20;;
11394;SDS011;5753;54.402;10.220;2023-03-21T13:40:33;13.48;;;8.15;;
11394;SDS011;5753;54.402;10.220;2023-03-21T13:51:55;11.27;;;9.50;;
11394;SDS011;5753;54.402;10.220;2023-03-21T13:56:59;15.30;;;8.82;;
11394;SDS011;5753;54.402;10.220;2023-03-21T14:05:01;8.98;;;7.95;;
11394;SDS011;5753;54.402;10.220;2023-03-21T14:07:34;10.05;;;8.95;;
11394;SDS011;5753;54.402;10.220;2023-03-21T14:10:07;10.13;;;7.65;;
11394;SDS011;5753;54.402;10.220;2023-03-21T14:12:52;9.43;;;7.63;;
11394;SDS011;5753;54.402;10.220;2023-03-21T14:15:25;10.85;;;7.55;;
11394;SDS011;5753;54.402;10.220;2023-03-21T14:18:04;10.45;;;8.38;;
11394;SDS011;5753;54.402;10.220;2023-03-21T14:20:34;11.95;;;7.20;;
11394;SDS011;5753;54.402;10.220;2023-03-21T14:23:06;10.60;;;6.78;;
11394;SDS011;5753;54.402;10.220;2023-03-21T14:25:38;11.67;;;9.07;;
11394;SDS011;5753;54.402;10.220;2023-03-21T14:28:12;8.88;;;6.85;;
11394;SDS011;5753;54.402;10.220;2023-03-21T14:30:44;11.95;;;6.55;;
11394;SDS011;5753;54.402;10.220;2023-03-21T14:35:40;7.50;;;5.72;;
11394;SDS011;5753;54.402;10.220;2023-03-21T14:38:07;9.50;;;7.93;;
11394;SDS011;5753;54.402;10.220;2023-03-21T14:40:46;10.23;;;7.57;;
11394;SDS011;5753;54.402;10.220;2023-03-21T14:43:14;10.27;;;5.55;;
11394;SDS011;5753;54.402;10.220;2023-03-21T14:45:40;8.05;;;5.95;;
11394;SDS011;5753;54.402;10.220;2023-03-21T14:48:09;7.25;;;5.80;;
11394;SDS011;5753;54.402;10.220;2023-03-21T14:50:38;7.05;;;4.82;;
11394;SDS011;5753;54.402;10.220;2023-03-21T14:53:05;10.05;;;6.18;;
11394;SDS011;5753;54.402;10.220;2023-03-21T14:55:42;11.52;;;6.05;;
11394;SDS011;5753;54.402;10.220;2023-03-21T15:00:40;10.45;;;6.55;;
11394;SDS011;5753;54.402;10.220;2023-03-21T15:03:06;8.40;;;7.25;;
11394;SDS011;5753;54.402;10.220;2023-03-21T15:05:36;9.57;;;7.18;;
11394;SDS011;5753;54.402;10.220;2023-03-21T15:08:07;5.93;;;4.70;;
11394;SDS011;5753;54.402;10.220;2023-03-21T15:10:38;9.13;;;5.78;;
11394;SDS011;5753;54.402;10.220;2023-03-21T15:13:45;7.68;;;5.78;;
11394;SDS011;5753;54.402;10.220;2023-03-21T15:16:09;5.63;;;5.05;;
11394;SDS011;5753;54.402;10.220;2023-03-21T15:18:38;6.88;;;4.95;;
11394;SDS011;5753;54.402;10.220;2023-03-21T15:21:11;5.70;;;4.63;;
11394;SDS011;5753;54.402;10.220;2023-03-21T15:23:46;6.00;;;5.38;;
11394;SDS011;5753;54.402;10.220;2023-03-21T15:26:27;5.60;;;4.63;;
11394;SDS011;5753;54.402;10.220;2023-03-21T15:28:58;6.35;;;4.47;;
11394;SDS011;5753;54.402;10.220;2023-03-21T15:31:30;5.28;;;4.53;;
11394;SDS011;5753;54.402;10.220;2023-03-21T15:34:00;6.80;;;5.28;;
11394;SDS011;5753;54.402;10.220;2023-03-21T15:36:35;6.00;;;4.18;;
11394;SDS011;5753;54.402;10.220;2023-03-21T15:39:11;3.80;;;3.47;;
11394;SDS011;5753;54.402;10.220;2023-03-21T15:41:40;4.63;;;4.10;;
11394;SDS011;5753;54.402;10.220;2023-03-21T15:44:20;5.47;;;3.50;;
11394;SDS011;5753;54.402;10.220;2023-03-21T15:46:47;5.20;;;4.28;;
11394;SDS011;5753;54.402;10.220;2023-03-21T15:51:51;6.85;;;4.28;;
11394;SDS011;5753;54.402;10.220;2023-03-21T15:54:25;4.40;;;2.90;;
11394;SDS011;5753;54.402;10.220;2023-03-21T15:57:02;4.07;;;3.67;;
11394;SDS011;5753;54.402;10.220;2023-03-21T15:59:39;7.65;;;4.13;;
11394;SDS011;5753;54.402;10.220;2023-03-21T16:02:19;5.78;;;4.88;;
11394;SDS011;5753;54.402;10.220;2023-03-21T16:05:02;6.15;;;4.18;;
11394;SDS011;5753;54.402;10.220;2023-03-21T16:07:44;5.63;;;4.10;;
11394;SDS011;5753;54.402;10.220;2023-03-21T16:10:17;5.68;;;4.82;;
11394;SDS011;5753;54.402;10.220;2023-03-21T16:12:52;11.98;;;4.28;;
11394;SDS011;5753;54.402;10.220;2023-03-21T16:15:18;4.50;;;4.10;;
11394;SDS011;5753;54.402;10.220;2023-03-21T16:17:49;11.25;;;6.78;;
11394;SDS011;5753;54.402;10.220;2023-03-21T16:20:19;4.82;;;4.30;;
11394;SDS011;5753;54.402;10.220;2023-03-21T16:22:48;5.68;;;4.15;;
11394;SDS011;5753;54.402;10.220;2023-03-21T16:25:14;7.15;;;3.80;;
11394;SDS011;5753;54.402;10.220;2023-03-21T16:27:41;6.10;;;4.65;;
11394;SDS011;5753;54.402;10.220;2023-03-21T16:30:10;8.88;;;6.75;;
11394;SDS011;5753;54.402;10.220;2023-03-21T16:32:38;7.55;;;4.95;;
11394;SDS011;5753;54.402;10.220;2023-03-21T16:35:05;8.30;;;6.13;;
11394;SDS011;5753;54.402;10.220;2023-03-21T16:37:32;6.63;;;4.32;;
11394;SDS011;5753;54.402;10.220;2023-03-21T16:39:58;7.75;;;5.57;;
11394;SDS011;5753;54.402;10.220;2023-03-21T16:42:24;6.18;;;5.47;;